Time;durP1;ratioP1;P1;durP2;ratioP2;P2;SDS_P1;SDS_P2;PMS_P1;PMS_P2;Temp;Humidity;BMP_temperature;BMP_pressure;BME280_temperature;BME280_humidity;BME280_pressure;Samples;Min_cycle;Max_cycle;Signal;HPM_P1;HPM_P2
2021/04/08 00:01:47;;;;;;;0.90;0.70;;;20.10;42.40;;;;;;7709207;23;20008;-65
2021/04/08 00:04:48;;;;;;;2.55;1.02;;;20.10;42.40;;;;;;7708846;23;20094;-65
2021/04/08 00:07:48;;;;;;;2.03;1.10;;;20.10;42.50;;;;;;7709224;23;20004;-65
2021/04/08 00:10:49;;;;;;;1.38;1.00;;;20.10;42.50;;;;;;7708972;23;20060;-65
2021/04/08 00:13:49;;;;;;;1.90;0.80;;;20.10;42.40;;;;;;7708923;23;20004;-65
2021/04/08 00:16:50;;;;;;;1.63;1.00;;;20.10;42.50;;;;;;7708630;23;20000;-65
2021/04/08 00:19:51;;;;;;;1.65;0.90;;;20.10;42.40;;;;;;7708957;23;20467;-65
2021/04/08 00:22:51;;;;;;;0.73;0.63;;;20.10;42.50;;;;;;7708654;23;20429;-65
2021/04/08 00:25:52;;;;;;;1.17;0.65;;;20.10;42.60;;;;;;7709174;23;20076;-65
2021/04/08 00:28:53;;;;;;;2.08;0.85;;;20.10;42.50;;;;;;7708480;23;20058;-64
2021/04/08 00:31:53;;;;;;;1.50;0.88;;;20.10;42.60;;;;;;7708412;23;20013;-65
2021/04/08 00:34:54;;;;;;;2.38;1.05;;;20.10;42.50;;;;;;7709674;23;20036;-65
2021/04/08 00:37:54;;;;;;;1.08;0.80;;;20.10;42.60;;;;;;7711055;23;20317;-65
2021/04/08 00:40:55;;;;;;;1.88;0.98;;;20.10;42.60;;;;;;7711183;23;20011;-65
2021/04/08 00:43:58;;;;;;;1.55;0.80;;;20.10;42.60;;;;;;7710859;23;20009;-64
2021/04/08 00:46:59;;;;;;;1.00;0.60;;;20.10;42.60;;;;;;7711402;23;20005;-65
2021/04/08 00:49:59;;;;;;;1.95;0.85;;;20.10;42.60;;;;;;7710694;23;20024;-65
2021/04/08 00:53:03;;;;;;;0.98;0.70;;;20.10;42.60;;;;;;7710587;23;20016;-65
2021/04/08 00:56:03;;;;;;;1.20;0.60;;;20.10;42.60;;;;;;7710748;23;20009;-64
2021/04/08 00:59:04;;;;;;;2.10;1.00;;;20.00;42.60;;;;;;7710605;23;20344;-65
2021/04/08 01:02:05;;;;;;;1.08;0.60;;;20.00;42.60;;;;;;7710747;23;20032;-64
2021/04/08 01:05:06;;;;;;;1.95;1.00;;;20.00;42.60;;;;;;7710911;23;20079;-64
2021/04/08 01:08:07;;;;;;;1.65;0.80;;;20.00;42.50;;;;;;7710657;23;20019;-65
2021/04/08 01:11:07;;;;;;;1.73;1.05;;;20.00;42.50;;;;;;7710485;23;20005;-65
2021/04/08 01:14:08;;;;;;;1.70;0.75;;;20.10;42.60;;;;;;7710914;23;20083;-65
2021/04/08 01:17:17;;;;;;;1.20;0.70;;;20.00;42.60;;;;;;7710444;23;20707;-64
2021/04/08 01:20:41;;;;;;;1.92;0.80;;;20.00;42.50;;;;;;7711364;23;20451;-65
2021/04/08 01:23:59;;;;;;;3.20;1.00;;;20.00;42.50;;;;;;7710392;23;20001;-65
2021/04/08 01:27:18;;;;;;;1.98;0.90;;;20.00;42.50;;;;;;7710745;23;20387;-65
2021/04/08 01:30:51;;;;;;;2.00;0.98;;;20.00;42.60;;;;;;7710629;23;20054;-65
2021/04/08 01:33:57;;;;;;;1.85;1.08;;;20.00;42.60;;;;;;7710306;23;20069;-65
2021/04/08 01:37:03;;;;;;;1.30;0.88;;;20.00;42.60;;;;;;7710677;23;20452;-64
2021/04/08 01:40:06;;;;;;;1.35;0.73;;;20.00;42.60;;;;;;7710634;23;20452;-65
2021/04/08 01:43:08;;;;;;;2.10;0.80;;;20.00;42.60;;;;;;7710486;23;20267;-65
2021/04/08 01:46:10;;;;;;;1.10;0.70;;;20.00;42.60;;;;;;7710513;23;20016;-65
2021/04/08 01:49:12;;;;;;;1.27;0.80;;;20.00;42.60;;;;;;7709910;23;20020;-65
2021/04/08 01:52:15;;;;;;;2.47;0.80;;;20.00;42.60;;;;;;7710135;23;20023;-65
2021/04/08 01:55:18;;;;;;;1.38;0.80;;;20.00;42.60;;;;;;7710262;23;20015;-65
2021/04/08 01:58:20;;;;;;;2.00;0.70;;;20.00;42.70;;;;;;7710272;23;20083;-65
2021/04/08 02:01:21;;;;;;;2.08;0.95;;;20.00;42.60;;;;;;7709805;23;20071;-65
2021/04/08 02:04:23;;;;;;;1.52;0.85;;;20.00;42.60;;;;;;7710229;23;20075;-65
2021/04/08 02:07:25;;;;;;;2.00;0.95;;;20.00;42.60;;;;;;7709853;23;20344;-65
2021/04/08 02:10:29;;;;;;;1.80;0.80;;;20.00;42.60;;;;;;7709772;23;20019;-65
2021/04/08 02:13:30;;;;;;;2.00;0.95;;;20.00;42.60;;;;;;7709650;23;20482;-64
2021/04/08 02:16:31;;;;;;;2.20;0.90;;;20.00;42.60;;;;;;7710370;23;20012;-65
2021/04/08 02:19:33;;;;;;;2.97;0.90;;;20.00;42.60;;;;;;7709539;23;20013;-65
2021/04/08 02:22:37;;;;;;;1.70;0.77;;;20.00;42.70;;;;;;7710516;23;20019;-65
2021/04/08 02:25:38;;;;;;;1.52;0.90;;;20.00;42.70;;;;;;7709986;23;20027;-65
2021/04/08 02:28:39;;;;;;;1.30;0.75;;;20.00;42.70;;;;;;7709947;23;20044;-65
2021/04/08 02:31:41;;;;;;;0.60;0.60;;;20.00;42.70;;;;;;7709806;23;20450;-65
2021/04/08 02:34:41;;;;;;;1.25;0.95;;;20.00;42.60;;;;;;7709420;23;20005;-64
2021/04/08 02:37:43;;;;;;;1.42;0.90;;;20.00;42.80;;;;;;7710115;23;20447;-65
2021/04/08 02:40:44;;;;;;;1.45;0.80;;;20.00;42.80;;;;;;7709814;23;20108;-65
2021/04/08 02:43:44;;;;;;;2.38;1.02;;;20.00;42.70;;;;;;7709570;23;20001;-64
2021/04/08 02:46:45;;;;;;;1.90;0.82;;;20.00;42.70;;;;;;7709626;23;20016;-64
2021/04/08 02:49:46;;;;;;;2.55;0.80;;;20.00;42.60;;;;;;7709458;23;20017;-65
2021/04/08 02:53:06;;;;;;;1.42;0.90;;;20.00;42.70;;;;;;7709554;23;20020;-65
2021/04/08 02:56:19;;;;;;;2.38;0.80;;;20.00;42.60;;;;;;7709529;23;20083;-65
2021/04/08 02:59:25;;;;;;;2.00;0.98;;;20.00;42.60;;;;;;7709138;23;20012;-65
2021/04/08 03:02:30;;;;;;;2.72;0.80;;;20.00;42.60;;;;;;7709148;23;20019;-65
2021/04/08 03:05:34;;;;;;;2.45;1.00;;;20.00;42.60;;;;;;7708884;23;20031;-65
2021/04/08 03:08:39;;;;;;;2.70;0.88;;;20.00;42.60;;;;;;7709685;23;20079;-65
2021/04/08 03:11:41;;;;;;;1.05;0.60;;;20.00;42.70;;;;;;7708708;23;20388;-65
2021/04/08 03:14:46;;;;;;;2.50;1.00;;;20.00;42.60;;;;;;7709773;23;20012;-65
2021/04/08 03:17:50;;;;;;;1.42;0.70;;;20.00;42.60;;;;;;7708993;23;20034;-65
2021/04/08 03:20:52;;;;;;;2.40;0.98;;;19.90;42.60;;;;;;7708604;23;20015;-65
2021/04/08 03:23:55;;;;;;;2.15;0.85;;;19.90;42.70;;;;;;7709003;23;20380;-65
2021/04/08 03:26:57;;;;;;;1.70;0.80;;;19.90;42.50;;;;;;7708996;23;20004;-63
2021/04/08 03:29:58;;;;;;;2.03;0.93;;;20.00;42.60;;;;;;7709242;23;20008;-65
2021/04/08 03:32:59;;;;;;;1.80;0.77;;;19.90;42.60;;;;;;7709101;23;20094;-65
2021/04/08 03:36:00;;;;;;;1.88;0.90;;;19.90;42.60;;;;;;7709131;23;20088;-65
2021/04/08 03:39:01;;;;;;;1.38;0.70;;;20.00;42.60;;;;;;7709190;23;20309;-65
2021/04/08 03:42:02;;;;;;;1.48;0.77;;;19.90;42.70;;;;;;7709220;23;20370;-66
2021/04/08 03:45:04;;;;;;;1.42;0.90;;;19.90;42.70;;;;;;7708629;23;20016;-66
2021/04/08 03:48:08;;;;;;;1.35;0.90;;;20.00;42.70;;;;;;7709257;23;20317;-65
2021/04/08 03:51:10;;;;;;;2.15;1.00;;;19.90;42.70;;;;;;7708693;23;20013;-65
2021/04/08 03:54:13;;;;;;;3.03;0.80;;;19.90;42.60;;;;;;7709977;23;20359;-65
2021/04/08 03:57:17;;;;;;;1.15;0.70;;;19.90;42.70;;;;;;7709212;23;20013;-65
2021/04/08 04:00:19;;;;;;;1.52;0.82;;;19.90;42.60;;;;;;7709495;23;20317;-65
2021/04/08 04:03:21;;;;;;;2.33;1.13;;;19.90;42.70;;;;;;7709109;23;20009;-65
2021/04/08 04:06:22;;;;;;;1.42;0.90;;;19.90;42.70;;;;;;7708753;23;20001;-65
2021/04/08 04:09:23;;;;;;;1.38;0.90;;;19.90;42.70;;;;;;7710861;23;20005;-64
2021/04/08 04:12:23;;;;;;;1.10;0.80;;;19.90;42.80;;;;;;7710794;23;20328;-65
2021/04/08 04:15:24;;;;;;;1.77;0.80;;;19.90;42.80;;;;;;7711127;23;20008;-65
2021/04/08 04:18:25;;;;;;;1.73;0.60;;;19.90;42.80;;;;;;7711106;23;20012;-65
2021/04/08 04:21:25;;;;;;;1.30;0.88;;;19.90;42.70;;;;;;7710713;23;20005;-64
2021/04/08 04:24:26;;;;;;;2.95;1.10;;;19.90;42.70;;;;;;7711301;23;20039;-65
2021/04/08 04:27:26;;;;;;;1.17;0.80;;;20.00;42.60;;;;;;7710957;23;20420;-65
2021/04/08 04:30:27;;;;;;;2.20;0.80;;;20.00;42.60;;;;;;7711093;23;20000;-65
2021/04/08 04:33:28;;;;;;;1.65;0.75;;;20.00;42.60;;;;;;7710929;23;20013;-65
2021/04/08 04:36:28;;;;;;;0.90;0.70;;;20.00;42.60;;;;;;7710989;23;20012;-65
2021/04/08 04:39:29;;;;;;;1.05;0.70;;;20.00;42.70;;;;;;7711007;23;19996;-65
2021/04/08 04:42:29;;;;;;;2.00;0.95;;;20.00;42.70;;;;;;7711150;23;20373;-65
2021/04/08 04:45:30;;;;;;;1.10;0.60;;;20.00;42.60;;;;;;7710901;23;20134;-65
2021/04/08 04:48:30;;;;;;;1.73;0.88;;;20.00;42.60;;;;;;7710735;23;20066;-65
2021/04/08 04:51:31;;;;;;;2.20;1.00;;;20.00;42.60;;;;;;7710486;23;20012;-65
2021/04/08 04:54:31;;;;;;;2.58;1.08;;;20.00;42.60;;;;;;7711030;23;20005;-65
2021/04/08 04:57:32;;;;;;;1.00;0.70;;;20.00;42.70;;;;;;7710794;23;20008;-65
2021/04/08 05:00:39;;;;;;;1.45;0.70;;;20.00;42.60;;;;;;7710585;23;20095;-64
2021/04/08 05:03:39;;;;;;;3.63;1.15;;;20.00;42.60;;;;;;7711215;23;20229;-64
2021/04/08 05:06:40;;;;;;;1.67;0.77;;;20.00;42.60;;;;;;7710582;23;20012;-65
2021/04/08 05:09:40;;;;;;;2.13;0.90;;;20.00;42.60;;;;;;7710696;23;20059;-65
2021/04/08 05:12:41;;;;;;;1.63;0.90;;;20.00;42.60;;;;;;7709949;23;20085;-65
2021/04/08 05:15:41;;;;;;;1.38;0.98;;;20.00;42.70;;;;;;7710812;23;20020;-65
2021/04/08 05:18:42;;;;;;;2.08;1.00;;;20.00;43.40;;;;;;7710079;23;20413;-65
2021/04/08 05:21:43;;;;;;;2.13;0.88;;;20.00;42.60;;;;;;7710307;23;20009;-65
2021/04/08 05:24:43;;;;;;;3.28;1.15;;;20.00;42.60;;;;;;7710238;23;20079;-64
2021/04/08 05:27:44;;;;;;;1.55;0.85;;;20.00;42.60;;;;;;7709766;23;20035;-65
2021/04/08 05:30:45;;;;;;;3.42;0.80;;;20.00;42.60;;;;;;7710532;23;20479;-65
2021/04/08 05:33:45;;;;;;;2.47;0.93;;;20.00;42.60;;;;;;7710025;23;20047;-65
2021/04/08 05:36:45;;;;;;;2.03;0.90;;;20.00;42.60;;;;;;7710464;23;20059;-65
2021/04/08 05:39:46;;;;;;;1.58;0.90;;;20.00;42.60;;;;;;7710420;23;20491;-65
2021/04/08 05:42:46;;;;;;;1.40;0.88;;;20.00;42.60;;;;;;7709982;23;20009;-64
2021/04/08 05:45:47;;;;;;;1.92;0.80;;;20.00;42.60;;;;;;7710284;23;20309;-64
2021/04/08 05:48:47;;;;;;;1.88;0.82;;;20.00;42.60;;;;;;7703830;23;20182;-65
2021/04/08 05:51:48;;;;;;;3.17;1.20;;;20.00;42.70;;;;;;7703265;23;20077;-65
2021/04/08 05:54:48;;;;;;;2.47;1.13;;;20.00;42.60;;;;;;7709094;23;20016;-64
2021/04/08 05:57:49;;;;;;;2.20;1.13;;;20.00;42.50;;;;;;7705795;23;20035;-65
2021/04/08 06:00:50;;;;;;;3.90;1.20;;;20.00;42.60;;;;;;7707940;23;20009;-65
2021/04/08 06:03:50;;;;;;;1.73;1.10;;;20.00;42.60;;;;;;7708935;23;20035;-65
2021/04/08 06:06:51;;;;;;;2.95;1.10;;;20.00;42.60;;;;;;7707794;23;20039;-65
2021/04/08 06:09:51;;;;;;;3.70;1.33;;;20.00;42.60;;;;;;7708134;23;20001;-65
2021/04/08 06:12:52;;;;;;;4.05;0.93;;;20.00;42.70;;;;;;7709594;23;20016;-65
2021/04/08 06:15:53;;;;;;;1.50;0.85;;;20.00;42.70;;;;;;7709803;23;20031;-65
2021/04/08 06:18:53;;;;;;;4.90;0.90;;;20.00;42.80;;;;;;7710954;23;20032;-64
2021/04/08 06:21:54;;;;;;;1.90;1.00;;;20.00;42.70;;;;;;7709499;23;20012;-65
2021/04/08 06:24:54;;;;;;;5.32;1.13;;;20.00;42.80;;;;;;7711590;23;20036;-64
2021/04/08 06:27:55;;;;;;;2.00;0.88;;;20.00;42.80;;;;;;7710581;23;20391;-64
2021/04/08 06:30:55;;;;;;;2.00;0.90;;;20.00;42.80;;;;;;7710113;23;20019;-67
2021/04/08 06:33:57;;;;;;;4.07;1.17;;;20.00;42.90;;;;;;7711559;23;20377;-65
2021/04/08 06:36:58;;;;;;;3.20;1.20;;;20.00;42.90;;;;;;7711527;23;20363;-65
2021/04/08 06:39:58;;;;;;;2.28;1.23;;;20.00;42.90;;;;;;7710973;23;20009;-64
2021/04/08 06:43:00;;;;;;;3.45;1.30;;;20.00;42.80;;;;;;7711843;23;20036;-64
2021/04/08 06:46:01;;;;;;;4.32;0.90;;;20.10;43.10;;;;;;7710161;23;20332;-65
2021/04/08 06:49:11;;;;;;;4.07;1.52;;;20.20;43.20;;;;;;7711389;23;20038;-65
2021/04/08 06:52:15;;;;;;;2.53;1.00;;;20.20;43.00;;;;;;7711490;23;20067;-65
2021/04/08 06:55:18;;;;;;;2.47;1.20;;;20.20;42.70;;;;;;7711357;23;20328;-65
2021/04/08 06:58:19;;;;;;;2.42;0.98;;;20.30;42.80;;;;;;7711253;23;20535;-65
2021/04/08 07:01:21;;;;;;;2.25;1.05;;;20.30;42.50;;;;;;7710843;23;20004;-65
2021/04/08 07:04:21;;;;;;;5.47;1.10;;;20.30;42.60;;;;;;7711930;23;20009;-65
2021/04/08 07:07:22;;;;;;;2.72;1.17;;;20.30;42.60;;;;;;7711513;23;20004;-65
2021/04/08 07:10:23;;;;;;;3.30;1.10;;;20.30;42.60;;;;;;7709974;23;20009;-65
2021/04/08 07:13:28;;;;;;;3.80;1.35;;;20.30;42.60;;;;;;7710669;23;20012;-65
2021/04/08 07:16:32;;;;;;;4.75;1.10;;;20.30;42.60;;;;;;7710891;23;20020;-65
2021/04/08 07:19:33;;;;;;;5.72;1.30;;;20.30;42.60;;;;;;7710763;23;20011;-65
2021/04/08 07:22:33;;;;;;;4.78;0.90;;;20.30;42.60;;;;;;7709466;23;20004;-66
2021/04/08 07:25:34;;;;;;;1.38;0.75;;;20.40;42.60;;;;;;7711115;23;20004;-66
2021/04/08 07:28:36;;;;;;;2.50;1.00;;;20.40;42.60;;;;;;7711217;23;20016;-66
2021/04/08 07:31:36;;;;;;;2.38;0.93;;;20.40;42.60;;;;;;7711189;23;20008;-65
2021/04/08 07:34:46;;;;;;;3.78;1.10;;;20.40;42.50;;;;;;7711575;23;20066;-66
2021/04/08 07:37:58;;;;;;;1.92;0.90;;;20.40;42.50;;;;;;7710286;23;20013;-66
2021/04/08 07:40:59;;;;;;;3.63;1.30;;;20.40;42.50;;;;;;7710703;23;20012;-66
2021/04/08 07:44:05;;;;;;;2.28;1.05;;;20.40;42.50;;;;;;7710667;23;20008;-65
2021/04/08 07:47:18;;;;;;;3.55;0.98;;;20.40;42.50;;;;;;7711259;23;20004;-65
2021/04/08 07:50:19;;;;;;;1.70;1.10;;;20.40;42.50;;;;;;7710423;23;20460;-66
2021/04/08 07:53:20;;;;;;;2.90;1.10;;;20.40;42.50;;;;;;7710796;23;20012;-65
2021/04/08 07:56:30;;;;;;;2.90;1.08;;;20.40;42.50;;;;;;7711420;23;20076;-66
2021/04/08 07:59:31;;;;;;;4.68;1.17;;;20.40;42.50;;;;;;7709824;23;20058;-66
2021/04/08 08:02:39;;;;;;;3.17;1.08;;;20.40;42.50;;;;;;7711108;23;20005;-66
2021/04/08 08:05:44;;;;;;;1.83;0.93;;;20.40;42.50;;;;;;7711032;23;20083;-65
2021/04/08 08:08:45;;;;;;;3.03;0.82;;;20.50;42.60;;;;;;7709695;23;20040;-66
2021/04/08 08:11:46;;;;;;;3.13;1.00;;;20.40;42.50;;;;;;7711034;23;20324;-66
2021/04/08 08:14:48;;;;;;;3.08;1.27;;;20.50;42.60;;;;;;7711110;23;20432;-66
2021/04/08 08:17:50;;;;;;;2.20;1.20;;;20.50;42.60;;;;;;7711000;23;20444;-65
2021/04/08 08:20:50;;;;;;;2.80;1.08;;;20.50;42.60;;;;;;7711263;23;20083;-65
2021/04/08 08:23:53;;;;;;;2.75;1.20;;;20.50;42.70;;;;;;7711466;23;20067;-65
2021/04/08 08:26:54;;;;;;;1.90;1.02;;;20.50;42.70;;;;;;7711210;23;20001;-66
2021/04/08 08:29:58;;;;;;;2.72;1.10;;;20.50;42.60;;;;;;7710683;23;20031;-66
2021/04/08 08:33:01;;;;;;;2.90;1.10;;;20.50;42.60;;;;;;7710981;23;20009;-66
2021/04/08 08:36:02;;;;;;;2.55;1.10;;;20.50;42.50;;;;;;7711153;23;20492;-66
2021/04/08 08:39:06;;;;;;;3.35;1.30;;;20.50;42.60;;;;;;7711233;23;20004;-66
2021/04/08 08:42:16;;;;;;;1.55;0.82;;;20.50;42.60;;;;;;7711259;23;20007;-66
2021/04/08 08:45:19;;;;;;;2.13;0.82;;;20.50;42.50;;;;;;7711335;23;20012;-65
2021/04/08 08:48:20;;;;;;;2.55;1.05;;;20.50;42.50;;;;;;7711100;23;20004;-65
2021/04/08 08:51:22;;;;;;;4.68;1.00;;;20.50;42.60;;;;;;7710910;23;20031;-65
2021/04/08 08:54:23;;;;;;;2.60;1.40;;;20.50;42.50;;;;;;7711515;23;20054;-65
2021/04/08 08:57:26;;;;;;;3.35;0.90;;;20.50;42.60;;;;;;7713387;23;20079;-65
2021/04/08 09:00:28;;;;;;;1.88;1.20;;;20.50;42.50;;;;;;7713201;23;20062;-66
2021/04/08 09:03:29;;;;;;;2.33;0.95;;;20.50;42.60;;;;;;7714007;23;20001;-66
2021/04/08 09:06:31;;;;;;;3.13;1.15;;;20.50;42.60;;;;;;7713232;23;20009;-66
2021/04/08 09:09:36;;;;;;;3.47;1.25;;;20.50;42.60;;;;;;7712663;23;20004;-66
2021/04/08 09:12:38;;;;;;;2.40;1.00;;;20.60;42.60;;;;;;7713859;23;20013;-66
2021/04/08 09:15:38;;;;;;;2.58;1.20;;;20.60;42.70;;;;;;7713719;23;20008;-66
2021/04/08 09:18:39;;;;;;;1.70;0.98;;;20.60;42.60;;;;;;7713419;23;20007;-67
2021/04/08 09:21:48;;;;;;;2.90;1.02;;;20.60;42.60;;;;;;7712777;23;20015;-66
2021/04/08 09:24:49;;;;;;;2.67;1.08;;;20.60;42.60;;;;;;7713266;23;20282;-66
2021/04/08 09:27:58;;;;;;;2.17;0.80;;;20.60;42.60;;;;;;7714162;23;20004;-66
2021/04/08 09:34:04;;;;;;;1.92;1.10;;;20.60;42.70;;;;;;7716703;23;20013;-65
2021/04/08 09:37:04;;;;;;;3.70;1.15;;;20.60;43.60;;;;;;7711548;23;20317;-66
2021/04/08 09:40:06;;;;;;;2.70;1.08;;;20.60;42.80;;;;;;7711695;23;20039;-66
2021/04/08 09:43:09;;;;;;;2.75;0.93;;;20.60;42.70;;;;;;7711939;23;20011;-66
2021/04/08 09:46:11;;;;;;;4.07;1.38;;;20.60;42.70;;;;;;7711734;23;20430;-66
2021/04/08 09:49:12;;;;;;;6.45;1.65;;;20.60;42.70;;;;;;7711717;23;20091;-67
2021/04/08 09:52:14;;;;;;;2.80;1.00;;;20.60;42.70;;;;;;7712056;23;20466;-67
2021/04/08 09:55:31;;;;;;;4.65;1.23;;;20.60;42.70;;;;;;7711129;23;20013;-67
2021/04/08 09:58:33;;;;;;;2.10;0.90;;;20.60;42.70;;;;;;7711879;23;20064;-67
2021/04/08 10:01:33;;;;;;;4.25;1.23;;;20.60;42.60;;;;;;7711373;23;20009;-66
2021/04/08 10:04:34;;;;;;;5.45;1.17;;;20.60;42.60;;;;;;7711910;23;20011;-66
2021/04/08 10:07:55;;;;;;;3.10;1.05;;;20.60;42.60;;;;;;7710848;23;20011;-67
2021/04/08 10:10:56;;;;;;;5.60;1.30;;;20.60;42.60;;;;;;7711870;23;20009;-67
2021/04/08 10:13:56;;;;;;;3.53;1.38;;;20.60;42.60;;;;;;7711882;23;20063;-67
2021/04/08 10:17:11;;;;;;;3.53;1.10;;;20.60;42.60;;;;;;7711100;23;20060;-65
2021/04/08 10:20:13;;;;;;;4.47;1.40;;;20.60;42.60;;;;;;7710304;23;20363;-66
2021/04/08 10:23:14;;;;;;;3.90;1.30;;;20.60;42.60;;;;;;7704156;23;20408;-66
2021/04/08 10:26:15;;;;;;;1.60;0.80;;;20.60;42.60;;;;;;7708248;23;20045;-66
2021/04/08 10:29:30;;;;;;;2.55;1.05;;;20.50;42.60;;;;;;7709065;23;20004;-66
2021/04/08 10:32:37;;;;;;;2.50;0.93;;;20.60;42.80;;;;;;7708301;23;20033;-66
2021/04/08 10:35:38;;;;;;;4.40;0.98;;;20.60;42.60;;;;;;7709406;23;20004;-69
2021/04/08 10:38:38;;;;;;;2.92;1.15;;;20.60;42.60;;;;;;7709912;23;20031;-66
2021/04/08 10:41:54;;;;;;;2.28;1.05;;;20.60;42.80;;;;;;7709890;23;20392;-66
2021/04/08 10:44:56;;;;;;;5.15;0.90;;;20.70;42.90;;;;;;7707210;23;20008;-66
2021/04/08 10:47:59;;;;;;;3.70;0.90;;;20.70;42.60;;;;;;7709288;23;20028;-66
2021/04/08 10:51:13;;;;;;;1.45;0.70;;;20.70;42.70;;;;;;7709642;23;20452;-66
2021/04/08 10:54:14;;;;;;;1.45;0.93;;;20.70;42.70;;;;;;7709354;23;20344;-66
2021/04/08 10:57:15;;;;;;;2.13;0.80;;;20.70;42.60;;;;;;7706242;23;20245;-67
2021/04/08 11:00:17;;;;;;;3.83;1.10;;;20.70;42.60;;;;;;7709624;23;20027;-66
2021/04/08 11:03:18;;;;;;;2.45;1.00;;;20.80;42.60;;;;;;7707890;23;20067;-66
2021/04/08 11:06:24;;;;;;;1.35;0.88;;;20.70;42.50;;;;;;7708241;23;20004;-66
2021/04/08 11:09:26;;;;;;;2.55;1.13;;;20.80;42.60;;;;;;7708396;23;20012;-65
2021/04/08 11:12:27;;;;;;;3.28;1.20;;;20.80;42.50;;;;;;7707840;23;20013;-65
2021/04/08 11:15:30;;;;;;;6.78;1.15;;;20.80;42.40;;;;;;7708597;23;20004;-67
2021/04/08 11:18:30;;;;;;;1.65;0.80;;;20.80;42.40;;;;;;7707866;23;20009;-67
2021/04/08 11:21:33;;;;;;;1.90;1.10;;;20.80;42.40;;;;;;7708413;23;20561;-67
2021/04/08 11:24:34;;;;;;;2.72;0.95;;;20.80;42.40;;;;;;7709080;23;20039;-67
2021/04/08 11:27:38;;;;;;;1.83;1.00;;;20.70;42.30;;;;;;7709224;23;20005;-66
2021/04/08 11:30:41;;;;;;;2.30;0.82;;;20.80;42.50;;;;;;7709425;23;20356;-66
2021/04/08 11:33:42;;;;;;;3.83;1.10;;;20.80;42.70;;;;;;7708611;23;20017;-66
2021/04/08 11:36:52;;;;;;;4.53;0.80;;;20.80;43.30;;;;;;7709292;23;20483;-66
2021/04/08 11:39:58;;;;;;;3.50;1.02;;;20.80;42.50;;;;;;7708940;23;20008;-66
2021/04/08 11:42:59;;;;;;;7.25;1.05;;;20.80;42.60;;;;;;7709588;23;20063;-67
2021/04/08 11:46:04;;;;;;;2.60;1.10;;;20.80;42.60;;;;;;7707730;23;20001;-66
2021/04/08 11:49:19;;;;;;;2.60;1.00;;;20.80;42.50;;;;;;7708564;23;20099;-66
2021/04/08 11:52:27;;;;;;;2.13;1.00;;;20.80;42.50;;;;;;7709228;23;20016;-67
2021/04/08 11:55:53;;;;;;;1.52;0.90;;;20.80;42.60;;;;;;7706577;23;20723;-67
2021/04/08 11:59:05;;;;;;;2.00;1.00;;;20.80;42.60;;;;;;7703479;23;20538;-66
2021/04/08 12:02:05;;;;;;;2.78;1.13;;;20.80;42.60;;;;;;7706255;23;20005;-67
2021/04/08 12:05:10;;;;;;;2.30;0.95;;;20.80;42.60;;;;;;7706064;23;20067;-67
2021/04/08 12:08:11;;;;;;;2.38;0.90;;;20.80;42.60;;;;;;7707170;23;20067;-65
2021/04/08 12:11:14;;;;;;;2.45;0.98;;;20.70;42.60;;;;;;7707899;23;20076;-66
2021/04/08 12:14:14;;;;;;;2.33;1.00;;;20.70;42.60;;;;;;7706393;23;20020;-66
2021/04/08 12:17:15;;;;;;;2.20;0.70;;;20.70;42.60;;;;;;7707546;23;20009;-66
2021/04/08 12:20:16;;;;;;;2.40;0.90;;;20.70;42.60;;;;;;7708097;23;20004;-66
2021/04/08 12:23:20;;;;;;;2.00;0.75;;;20.70;42.80;;;;;;7707447;23;20004;-66
2021/04/08 12:26:35;;;;;;;1.75;0.98;;;20.70;42.80;;;;;;7707779;23;20089;-66
2021/04/08 12:29:35;;;;;;;2.60;0.73;;;20.70;42.60;;;;;;7709731;23;20011;-66
2021/04/08 12:32:36;;;;;;;1.95;0.82;;;20.70;42.60;;;;;;7711618;23;20046;-67
2021/04/08 12:35:37;;;;;;;3.67;1.17;;;20.70;42.60;;;;;;7709536;23;20012;-67
2021/04/08 12:38:39;;;;;;;4.20;1.10;;;20.70;42.70;;;;;;7710918;23;20040;-66
2021/04/08 12:41:40;;;;;;;2.55;1.15;;;20.70;42.70;;;;;;7711878;23;20012;-67
2021/04/08 12:44:40;;;;;;;3.38;1.05;;;20.70;42.60;;;;;;7710711;23;20008;-67
2021/04/08 12:47:40;;;;;;;1.40;0.70;;;20.70;42.60;;;;;;7709967;23;20012;-66
2021/04/08 12:50:43;;;;;;;1.92;1.00;;;20.70;42.60;;;;;;7710356;23;20083;-66
2021/04/08 12:53:44;;;;;;;3.13;0.90;;;20.70;42.70;;;;;;7710294;23;20013;-67
2021/04/08 12:56:44;;;;;;;1.67;0.70;;;20.70;42.70;;;;;;7711005;23;20047;-67
2021/04/08 12:59:45;;;;;;;1.45;0.80;;;20.70;42.60;;;;;;7710876;23;20059;-66
2021/04/08 13:02:45;;;;;;;2.20;0.75;;;20.70;42.70;;;;;;7710428;23;20448;-67
2021/04/08 13:05:46;;;;;;;5.10;1.40;;;20.70;42.20;;;;;;7710690;23;20066;-66
2021/04/08 13:08:47;;;;;;;5.78;0.90;;;20.70;41.20;;;;;;7710942;23;20016;-67
2021/04/08 13:11:47;;;;;;;3.58;1.10;;;20.70;40.30;;;;;;7710668;23;20016;-67
2021/04/08 13:14:48;;;;;;;4.90;0.98;;;20.60;41.00;;;;;;7709637;23;20450;-67
2021/04/08 13:17:51;;;;;;;3.75;1.05;;;20.60;41.20;;;;;;7710932;23;20049;-66
2021/04/08 13:20:52;;;;;;;5.35;1.60;;;20.70;41.50;;;;;;7710424;23;20001;-67
2021/04/08 13:23:56;;;;;;;7.60;1.10;;;20.70;41.70;;;;;;7711392;23;20001;-67
2021/04/08 13:26:56;;;;;;;3.92;1.40;;;20.60;41.50;;;;;;7709246;23;20004;-66
2021/04/08 13:29:57;;;;;;;6.28;1.42;;;20.60;40.60;;;;;;7710481;23;20058;-66
2021/04/08 13:32:57;;;;;;;4.28;1.30;;;20.70;40.70;;;;;;7710854;23;20013;-66
2021/04/08 13:35:58;;;;;;;4.10;1.20;;;20.60;40.50;;;;;;7710700;23;20005;-66
2021/04/08 13:38:58;;;;;;;6.95;1.35;;;20.60;41.10;;;;;;7709799;23;20016;-66
2021/04/08 13:41:59;;;;;;;4.65;1.08;;;20.60;41.10;;;;;;7708958;23;20008;-65
2021/04/08 13:45:00;;;;;;;4.03;1.17;;;20.60;41.20;;;;;;7710341;23;19997;-66
2021/04/08 13:48:00;;;;;;;2.78;1.02;;;20.60;41.20;;;;;;7710713;23;20399;-66
2021/04/08 13:51:01;;;;;;;2.75;1.02;;;20.60;41.40;;;;;;7709078;23;20436;-66
2021/04/08 13:54:02;;;;;;;5.55;1.13;;;20.60;41.50;;;;;;7710249;23;20013;-66
2021/04/08 13:57:02;;;;;;;3.83;1.30;;;20.60;41.60;;;;;;7710355;23;20008;-66
2021/04/08 14:00:12;;;;;;;2.88;1.30;;;20.60;42.40;;;;;;7709079;23;20060;-66
2021/04/08 14:03:12;;;;;;;5.32;1.00;;;20.60;41.70;;;;;;7709349;23;20015;-66
2021/04/08 14:06:13;;;;;;;4.65;1.10;;;20.60;41.80;;;;;;7709701;23;20013;-66
2021/04/08 14:09:13;;;;;;;4.47;1.63;;;20.60;41.80;;;;;;7710406;23;20005;-65
2021/04/08 14:12:14;;;;;;;3.42;1.30;;;20.50;40.60;;;;;;7711263;23;20119;-65
2021/04/08 14:15:15;;;;;;;4.47;1.33;;;20.50;40.00;;;;;;7708900;23;20008;-65
2021/04/08 14:18:15;;;;;;;4.55;1.52;;;20.50;40.30;;;;;;7709417;23;20075;-65
2021/04/08 14:21:16;;;;;;;3.95;1.20;;;20.50;40.70;;;;;;7706051;23;20436;-65
2021/04/08 14:24:16;;;;;;;3.85;1.30;;;20.50;40.70;;;;;;7708191;23;20051;-65
2021/04/08 14:27:17;;;;;;;4.55;1.20;;;20.50;40.80;;;;;;7708564;23;20059;-66
2021/04/08 14:30:18;;;;;;;2.75;1.00;;;20.50;40.90;;;;;;7709885;23;20428;-66
2021/04/08 14:33:19;;;;;;;2.65;1.02;;;20.50;41.00;;;;;;7707957;23;20063;-65
2021/04/08 14:36:20;;;;;;;3.38;1.20;;;20.50;41.10;;;;;;7710122;23;20375;-66
2021/04/08 14:39:20;;;;;;;6.93;1.48;;;20.50;41.50;;;;;;7709131;23;20008;-66
2021/04/08 14:42:21;;;;;;;7.57;1.25;;;20.50;41.50;;;;;;7709978;23;20081;-65
2021/04/08 14:45:22;;;;;;;5.22;0.98;;;20.50;41.30;;;;;;7708413;23;20000;-65
2021/04/08 14:48:22;;;;;;;4.80;1.13;;;20.50;41.40;;;;;;7709375;23;20075;-65
2021/04/08 14:51:23;;;;;;;4.20;1.20;;;20.50;41.60;;;;;;7709688;23;20021;-66
2021/04/08 14:54:24;;;;;;;5.97;1.42;;;20.50;41.60;;;;;;7709177;23;20036;-64
2021/04/08 14:57:24;;;;;;;6.60;1.13;;;20.50;41.70;;;;;;7709253;23;20015;-65
2021/04/08 15:00:26;;;;;;;9.38;1.60;;;20.50;41.70;;;;;;7708698;23;20028;-65
2021/04/08 15:03:26;;;;;;;12.75;1.25;;;20.50;41.80;;;;;;7708875;23;20486;-66
2021/04/08 15:06:27;;;;;;;4.47;1.15;;;20.50;41.80;;;;;;7709364;23;20013;-66
2021/04/08 15:09:27;;;;;;;4.68;1.10;;;20.50;41.70;;;;;;7710396;23;20009;-66
2021/04/08 15:12:28;;;;;;;5.47;1.23;;;20.50;41.40;;;;;;7710313;23;20005;-65
2021/04/08 15:15:29;;;;;;;4.40;1.13;;;20.40;40.00;;;;;;7708188;23;20008;-65
2021/04/08 15:18:29;;;;;;;5.57;1.30;;;20.40;39.40;;;;;;7708158;23;20506;-65
2021/04/08 15:21:31;;;;;;;4.03;1.05;;;20.40;38.40;;;;;;7709656;23;20309;-66
2021/04/08 15:24:32;;;;;;;4.20;1.40;;;20.40;38.60;;;;;;7709892;23;20043;-66
2021/04/08 15:27:32;;;;;;;4.75;1.30;;;20.40;37.50;;;;;;7710079;23;20395;-66
2021/04/08 15:30:33;;;;;;;3.35;1.35;;;20.40;36.90;;;;;;7708742;23;20008;-66
2021/04/08 15:33:34;;;;;;;4.90;1.70;;;20.40;36.70;;;;;;7709762;23;20012;-66
2021/04/08 15:36:35;;;;;;;4.60;0.93;;;20.40;36.60;;;;;;7709882;23;20004;-66
2021/04/08 15:39:37;;;;;;;3.97;1.20;;;20.40;37.10;;;;;;7709016;23;20001;-66
2021/04/08 15:42:37;;;;;;;3.60;1.20;;;20.40;37.60;;;;;;7709275;23;20024;-66
2021/04/08 15:45:38;;;;;;;3.67;1.33;;;20.40;37.90;;;;;;7709504;23;20301;-66
2021/04/08 15:48:39;;;;;;;2.40;1.05;;;20.40;38.00;;;;;;7708438;23;20008;-65
2021/04/08 15:51:40;;;;;;;4.65;1.48;;;20.40;38.30;;;;;;7709643;23;20084;-65
2021/04/08 15:54:42;;;;;;;3.47;1.17;;;20.40;38.60;;;;;;7707626;23;20376;-66